createdAt,value
2018-01-27T00:00:06.735Z,72.87
2018-01-27T00:02:34.320Z,72.87
2018-01-27T00:05:02.006Z,71.43
2018-01-27T00:07:29.553Z,68.53
2018-01-27T00:09:57.137Z,85.80
2018-01-27T00:12:24.755Z,77.27
2018-01-27T00:14:52.384Z,97.17
2018-01-27T00:17:19.961Z,76.43
2018-01-27T00:19:47.582Z,67.33
2018-01-27T00:22:15.168Z,77.50
2018-01-27T00:24:42.759Z,67.90
2018-01-27T00:27:10.445Z,67.43
2018-01-27T00:29:38.025Z,75.60
2018-01-27T00:32:05.608Z,82.32
2018-01-27T00:34:33.464Z,66.67
2018-01-27T00:37:01.026Z,78.10
2018-01-27T00:39:28.639Z,82.43
2018-01-27T00:41:56.248Z,79.70
2018-01-27T00:44:23.829Z,73.67
2018-01-27T00:46:51.451Z,75.93
2018-01-27T00:49:19.066Z,72.47
2018-01-27T00:51:46.645Z,62.27
2018-01-27T00:54:14.381Z,68.53
2018-01-27T00:56:41.998Z,74.43
2018-01-27T00:59:09.696Z,65.10
2018-01-27T01:01:37.354Z,73.43
2018-01-27T01:04:04.984Z,84.77
2018-01-27T01:06:32.546Z,82.80
2018-01-27T01:09:00.186Z,90.07
2018-01-27T01:11:27.802Z,69.93
2018-01-27T01:13:55.484Z,78.00
2018-01-27T01:16:23.090Z,75.67
2018-01-27T01:18:50.696Z,70.20
2018-01-27T01:21:18.267Z,84.17
2018-01-27T01:23:45.902Z,79.40
2018-01-27T01:26:13.503Z,78.13
2018-01-27T01:28:41.215Z,74.60
2018-01-27T01:31:09.066Z,83.87
2018-01-27T01:33:36.751Z,76.33
2018-01-27T01:36:04.401Z,82.07
2018-01-27T01:38:31.976Z,78.97
2018-01-27T01:40:59.655Z,85.67
2018-01-27T01:43:32.783Z,76.23
2018-01-27T01:46:00.402Z,76.53
2018-01-27T01:48:27.983Z,94.60
2018-01-27T01:50:55.715Z,96.83
2018-01-27T01:53:23.350Z,76.57
2018-01-27T01:55:51.031Z,85.90
2018-01-27T01:58:18.607Z,86.30
2018-01-27T02:00:46.348Z,71.83
2018-01-27T02:03:14.023Z,73.27
2018-01-27T02:05:41.601Z,82.57
2018-01-27T02:08:09.228Z,76.80
2018-01-27T02:10:36.842Z,61.97
2018-01-27T02:13:04.440Z,67.07
2018-01-27T02:15:32.066Z,57.80
2018-01-27T02:17:59.678Z,77.37
2018-01-27T02:20:27.254Z,86.27
2018-01-27T02:22:54.880Z,122.93
2018-01-27T02:25:22.441Z,84.30
2018-01-27T02:27:50.229Z,102.33
2018-01-27T02:30:17.842Z,106.00
2018-01-27T02:32:45.567Z,79.27
2018-01-27T02:35:13.139Z,86.17
2018-01-27T02:37:40.890Z,88.83
2018-01-27T02:40:08.581Z,77.53
2018-01-27T02:42:36.419Z,72.23
2018-01-27T02:45:04.039Z,66.20
2018-01-27T02:47:31.622Z,70.63
2018-01-27T02:49:59.190Z,78.87
2018-01-27T02:52:26.794Z,81.50
2018-01-27T02:54:54.404Z,74.30
2018-01-27T02:57:22.011Z,79.57
2018-01-27T02:59:49.641Z,76.60
2018-01-27T03:02:17.308Z,66.37
2018-01-27T03:04:44.958Z,74.00
2018-01-27T03:07:12.613Z,61.23
2018-01-27T03:09:40.307Z,64.87
2018-01-27T03:12:07.889Z,80.67
2018-01-27T03:14:35.601Z,73.40
2018-01-27T03:17:03.180Z,72.73
2018-01-27T03:19:30.767Z,63.23
2018-01-27T03:21:58.369Z,79.72
2018-01-27T03:24:26.046Z,64.53
2018-01-27T03:26:53.610Z,71.77
2018-01-27T03:29:21.210Z,62.53
2018-01-27T03:31:48.774Z,81.63
2018-01-27T03:34:16.507Z,72.30
2018-01-27T03:36:44.115Z,75.97
2018-01-27T03:39:11.679Z,61.87
2018-01-27T03:41:39.249Z,86.83
2018-01-27T03:44:07.027Z,71.30
2018-01-27T03:46:34.599Z,70.00
2018-01-27T03:49:02.168Z,72.47
2018-01-27T03:51:29.919Z,78.20
2018-01-27T03:53:57.580Z,80.90
2018-01-27T03:56:25.143Z,80.73
2018-01-27T03:58:52.859Z,80.50
2018-01-27T04:01:20.587Z,74.57
2018-01-27T04:03:48.234Z,68.63
2018-01-27T04:06:15.883Z,70.40
2018-01-27T04:08:43.779Z,77.67
2018-01-27T04:11:11.342Z,85.25
2018-01-27T04:13:39.087Z,70.87
2018-01-27T04:16:06.658Z,67.93
2018-01-27T04:18:34.272Z,65.93
2018-01-27T04:21:01.888Z,69.63
2018-01-27T04:23:29.453Z,71.77
2018-01-27T04:25:57.024Z,77.10
2018-01-27T04:28:24.647Z,70.57
2018-01-27T04:30:52.276Z,66.80
2018-01-27T04:33:19.853Z,61.13
2018-01-27T04:35:47.470Z,77.17
2018-01-27T04:38:15.037Z,50.60
2018-01-27T04:40:42.614Z,71.87
2018-01-27T04:43:10.229Z,89.73
2018-01-27T04:45:37.816Z,76.83
2018-01-27T04:48:05.403Z,73.67
2018-01-27T04:50:33.005Z,83.27
2018-01-27T04:53:00.646Z,70.33
2018-01-27T04:55:28.231Z,74.80
2018-01-27T04:57:55.830Z,84.03
2018-01-27T05:00:23.440Z,92.93
2018-01-27T05:02:51.108Z,78.90
2018-01-27T05:05:18.728Z,76.03
2018-01-27T05:07:46.441Z,68.37
2018-01-27T05:10:14.043Z,63.03
2018-01-27T05:12:41.652Z,72.83
2018-01-27T05:15:09.609Z,67.93
2018-01-27T05:17:37.181Z,72.67
2018-01-27T05:20:04.768Z,67.53
2018-01-27T05:22:32.397Z,59.90
2018-01-27T05:25:00.079Z,70.63
2018-01-27T05:27:27.656Z,65.00
2018-01-27T05:29:55.262Z,48.60
2018-01-27T05:32:22.851Z,60.27
2018-01-27T05:34:50.442Z,63.10
2018-01-27T05:37:18.071Z,59.83
2018-01-27T05:39:45.667Z,55.43
2018-01-27T05:42:13.503Z,61.10
2018-01-27T05:44:41.085Z,69.27
2018-01-27T05:47:08.666Z,54.63
2018-01-27T05:49:36.304Z,53.23
2018-01-27T05:52:03.908Z,57.27
2018-01-27T05:54:31.480Z,59.50
2018-01-27T05:56:59.052Z,52.30
2018-01-27T05:59:26.709Z,56.70
2018-01-27T06:01:54.440Z,50.30
2018-01-27T06:04:22.036Z,68.50
2018-01-27T06:06:49.645Z,57.10
2018-01-27T06:09:17.225Z,96.30
2018-01-27T06:11:44.941Z,85.90
2018-01-27T06:14:12.555Z,56.20
2018-01-27T06:16:40.125Z,54.90
2018-01-27T06:19:07.809Z,69.40
2018-01-27T06:21:35.458Z,68.10
2018-01-27T06:24:03.082Z,66.67
2018-01-27T06:26:30.675Z,67.53
2018-01-27T06:28:58.653Z,62.43
2018-01-27T06:31:26.240Z,57.80
2018-01-27T06:33:53.820Z,67.10
2018-01-27T06:36:21.426Z,62.53
2018-01-27T06:38:48.999Z,59.40
2018-01-27T06:41:16.575Z,80.37
2018-01-27T06:43:44.168Z,85.70
2018-01-27T06:46:11.752Z,63.47
2018-01-27T06:48:39.336Z,63.60
2018-01-27T06:51:06.946Z,64.17
2018-01-27T06:53:34.528Z,77.20
2018-01-27T06:56:02.112Z,61.23
2018-01-27T06:58:29.782Z,55.70
2018-01-27T07:00:57.442Z,60.30
2018-01-27T07:03:25.015Z,67.03
2018-01-27T07:05:52.653Z,67.60
2018-01-27T07:08:20.241Z,56.10
2018-01-27T07:10:47.828Z,68.33
2018-01-27T07:13:15.435Z,63.80
2018-01-27T07:15:43.015Z,54.47
2018-01-27T07:18:10.589Z,62.03
2018-01-27T07:20:38.231Z,60.37
2018-01-27T07:23:05.815Z,67.57
2018-01-27T07:25:33.397Z,61.30
2018-01-27T07:28:01.016Z,57.90
2018-01-27T07:30:28.599Z,54.53
2018-01-27T07:32:56.222Z,60.63
2018-01-27T07:35:23.856Z,57.70
2018-01-27T07:37:51.486Z,50.90
2018-01-27T07:40:19.073Z,54.80
2018-01-27T07:42:46.702Z,47.53
2018-01-27T07:45:14.267Z,52.53
2018-01-27T07:47:41.839Z,64.50
2018-01-27T07:50:09.451Z,59.67
2018-01-27T07:52:37.050Z,54.60
2018-01-27T07:55:04.645Z,64.17
2018-01-27T07:57:32.254Z,64.07
2018-01-27T07:59:59.831Z,56.87
2018-01-27T08:02:27.416Z,54.83
2018-01-27T08:04:55.142Z,55.03
2018-01-27T08:07:22.724Z,60.57
2018-01-27T08:09:50.303Z,56.80
2018-01-27T08:12:17.990Z,58.10
2018-01-27T08:14:45.693Z,67.23
2018-01-27T08:17:13.394Z,60.10
2018-01-27T08:19:41.016Z,57.87
2018-01-27T08:22:08.742Z,47.57
2018-01-27T08:24:36.329Z,59.83
2018-01-27T08:27:03.956Z,62.20
2018-01-27T08:29:31.538Z,60.97
2018-01-27T08:31:59.283Z,56.93
2018-01-27T08:34:26.887Z,70.57
2018-01-27T08:36:54.485Z,52.67
2018-01-27T08:39:22.047Z,48.10
2018-01-27T08:41:49.627Z,61.83
2018-01-27T08:44:17.179Z,58.40
2018-01-27T08:46:44.756Z,83.33
2018-01-27T08:49:12.437Z,69.20
2018-01-27T08:51:40.012Z,75.67
2018-01-27T08:54:07.678Z,84.77
2018-01-27T08:56:35.288Z,95.30
2018-01-27T08:59:02.852Z,90.90
2018-01-27T09:01:30.510Z,99.30
2018-01-27T09:03:58.106Z,99.00
2018-01-27T09:06:25.685Z,96.00
2018-01-27T09:08:53.289Z,90.13
2018-01-27T09:11:20.901Z,119.43
2018-01-27T09:13:48.471Z,132.40
2018-01-27T09:16:16.039Z,95.23
2018-01-27T09:18:43.646Z,111.77
2018-01-27T09:21:11.230Z,122.20
2018-01-27T09:23:38.814Z,124.90
2018-01-27T09:26:06.436Z,136.63
2018-01-27T09:28:33.993Z,145.93
2018-01-27T09:31:01.640Z,135.43
2018-01-27T09:33:29.256Z,181.00
2018-01-27T09:35:56.831Z,183.37
2018-01-27T09:38:24.384Z,166.60
2018-01-27T09:40:52.030Z,188.20
2018-01-27T09:43:19.595Z,147.57
2018-01-27T09:45:47.156Z,142.50
2018-01-27T09:48:14.762Z,154.57
2018-01-27T09:50:42.336Z,117.03
2018-01-27T09:53:09.921Z,72.40
2018-01-27T09:55:37.520Z,69.20
2018-01-27T09:58:05.082Z,70.13
2018-01-27T10:00:32.655Z,82.80
2018-01-27T10:03:00.249Z,87.97
2018-01-27T10:05:27.964Z,68.23
2018-01-27T10:07:55.574Z,65.53
2018-01-27T10:10:23.181Z,71.97
2018-01-27T10:12:50.902Z,77.80
2018-01-27T10:15:18.461Z,65.53
2018-01-27T10:17:46.049Z,62.27
2018-01-27T10:20:13.616Z,67.13
2018-01-27T10:22:41.168Z,63.47
2018-01-27T10:25:08.802Z,67.40
2018-01-27T10:27:36.379Z,66.90
2018-01-27T10:30:03.915Z,63.53
2018-01-27T10:32:31.603Z,108.33
2018-01-27T10:34:59.183Z,161.83
2018-01-27T10:37:26.741Z,139.80
2018-01-27T10:39:54.359Z,91.67
2018-01-27T10:42:21.973Z,109.77
2018-01-27T10:44:49.598Z,87.10
2018-01-27T10:47:17.188Z,99.00
2018-01-27T10:49:44.834Z,114.70
2018-01-27T10:52:12.443Z,100.13
2018-01-27T10:54:40.060Z,79.10
2018-01-27T10:57:07.617Z,85.20
2018-01-27T10:59:35.185Z,97.93
2018-01-27T11:02:02.804Z,105.33
2018-01-27T11:04:30.376Z,101.93
2018-01-27T11:06:57.963Z,110.60
2018-01-27T11:09:25.567Z,115.37
2018-01-27T11:11:53.152Z,112.50
2018-01-27T11:14:20.736Z,108.53
2018-01-27T11:16:48.361Z,92.60
2018-01-27T11:19:15.940Z,101.03
2018-01-27T11:21:43.513Z,109.57
2018-01-27T11:24:11.160Z,103.40
2018-01-27T11:26:38.765Z,101.33
2018-01-27T11:29:06.326Z,123.37
2018-01-27T11:31:33.940Z,116.73
2018-01-27T11:34:01.529Z,100.10
2018-01-27T11:36:29.082Z,86.03
2018-01-27T11:38:56.699Z,87.20
2018-01-27T11:41:24.281Z,76.70
2018-01-27T11:43:51.870Z,82.23
2018-01-27T11:46:19.470Z,82.43
2018-01-27T11:48:47.030Z,82.50
2018-01-27T11:51:14.596Z,94.43
2018-01-27T11:53:42.242Z,116.50
2018-01-27T11:56:09.865Z,81.93
2018-01-27T11:58:37.430Z,100.50
2018-01-27T12:01:05.168Z,71.07
2018-01-27T12:03:32.735Z,61.47
2018-01-27T12:06:00.319Z,63.83
2018-01-27T12:08:27.931Z,51.03
2018-01-27T12:10:55.600Z,77.57
2018-01-27T12:13:23.299Z,66.23
2018-01-27T12:15:50.878Z,77.70
2018-01-27T12:18:18.443Z,62.03
2018-01-27T12:20:46.013Z,68.87
2018-01-27T12:23:13.641Z,64.60
2018-01-27T12:25:41.986Z,65.97
2018-01-27T12:28:09.554Z,80.13
2018-01-27T12:30:37.162Z,66.13
2018-01-27T12:33:04.729Z,63.40
2018-01-27T12:35:32.281Z,69.63
2018-01-27T12:37:59.962Z,76.47
2018-01-27T12:40:27.614Z,66.77
2018-01-27T12:42:55.181Z,74.20
2018-01-27T12:45:22.788Z,79.53
2018-01-27T12:47:50.372Z,74.93
2018-01-27T12:50:17.970Z,72.67
2018-01-27T12:52:45.559Z,68.50
2018-01-27T12:55:13.121Z,71.07
2018-01-27T12:57:40.691Z,73.40
2018-01-27T13:00:08.311Z,79.43
2018-01-27T13:02:38.427Z,103.87
2018-01-27T13:05:06.135Z,115.07
2018-01-27T13:07:33.745Z,121.13
2018-01-27T13:10:01.371Z,86.57
2018-01-27T13:12:28.943Z,81.57
2018-01-27T13:14:56.518Z,99.13
2018-01-27T13:17:24.087Z,106.00
2018-01-27T13:19:51.674Z,100.00
2018-01-27T13:22:19.301Z,109.37
2018-01-27T13:24:46.859Z,114.57
2018-01-27T13:27:14.431Z,112.93
2018-01-27T13:29:42.038Z,155.67
2018-01-27T13:32:09.605Z,115.87
2018-01-27T13:34:37.208Z,219.07
2018-01-27T13:37:04.813Z,97.50
2018-01-27T13:39:32.383Z,121.50
2018-01-27T13:41:59.947Z,162.83
2018-01-27T13:44:27.552Z,113.53
2018-01-27T13:46:55.135Z,106.97
2018-01-27T13:49:22.696Z,129.33
2018-01-27T13:51:50.330Z,99.80
2018-01-27T13:54:17.900Z,118.13
2018-01-27T13:56:45.529Z,116.33
2018-01-27T13:59:13.139Z,116.10
2018-01-27T14:01:41.373Z,116.60
2018-01-27T14:04:12.030Z,128.13
2018-01-27T14:06:39.914Z,240.40
2018-01-27T14:09:07.980Z,123.47
2018-01-27T14:11:35.793Z,150.07
2018-01-27T14:14:03.447Z,141.67
2018-01-27T14:16:31.085Z,137.23
2018-01-27T14:18:58.676Z,130.43
2018-01-27T14:21:26.272Z,128.60
2018-01-27T14:23:53.890Z,129.30
2018-01-27T14:26:21.503Z,132.57
2018-01-27T14:28:49.136Z,121.83
2018-01-27T14:31:16.720Z,122.03
2018-01-27T14:33:44.299Z,137.53
2018-01-27T14:36:11.926Z,121.57
2018-01-27T14:38:39.493Z,181.77
2018-01-27T14:41:07.060Z,143.40
2018-01-27T14:43:34.647Z,130.90
2018-01-27T14:46:02.322Z,134.07
2018-01-27T14:48:29.861Z,167.77
2018-01-27T14:50:57.503Z,144.80
2018-01-27T14:53:25.055Z,340.17
2018-01-27T14:55:52.682Z,255.50
2018-01-27T14:58:20.296Z,268.03
2018-01-27T15:00:47.863Z,201.97
2018-01-27T15:03:15.436Z,150.90
2018-01-27T15:05:43.077Z,133.30
2018-01-27T15:08:10.639Z,154.37
2018-01-27T15:10:38.219Z,140.27
2018-01-27T15:13:05.838Z,162.37
2018-01-27T15:15:33.472Z,163.23
2018-01-27T15:18:01.047Z,222.40
2018-01-27T15:20:28.743Z,228.57
2018-01-27T15:22:56.345Z,251.43
2018-01-27T15:25:23.927Z,249.60
2018-01-27T15:27:51.542Z,189.03
2018-01-27T15:30:19.099Z,147.93
2018-01-27T15:32:46.710Z,149.50
2018-01-27T15:35:14.299Z,127.20
2018-01-27T15:37:41.862Z,134.83
2018-01-27T15:40:09.431Z,125.07
2018-01-27T15:42:37.088Z,111.73
2018-01-27T15:45:04.737Z,128.23
2018-01-27T15:47:32.311Z,112.20
2018-01-27T15:50:00.058Z,134.23
2018-01-27T15:52:27.717Z,129.27
2018-01-27T15:54:58.027Z,128.83
2018-01-27T15:57:25.715Z,135.97
2018-01-27T15:59:53.337Z,133.50
2018-01-27T16:02:20.900Z,133.17
2018-01-27T16:04:48.519Z,126.90
2018-01-27T16:07:16.098Z,133.20
2018-01-27T16:09:43.670Z,144.07
2018-01-27T16:12:11.297Z,147.60
2018-01-27T16:14:38.859Z,131.60
2018-01-27T16:17:06.438Z,130.23
2018-01-27T16:19:34.061Z,136.80
2018-01-27T16:22:01.645Z,149.20
2018-01-27T16:24:29.254Z,164.80
2018-01-27T16:26:58.248Z,136.67
2018-01-27T16:29:25.956Z,146.87
2018-01-27T16:31:55.334Z,135.80
2018-01-27T16:34:24.516Z,170.13
2018-01-27T16:36:55.317Z,139.17
2018-01-27T16:39:26.726Z,138.00
2018-01-27T16:41:56.091Z,157.07
2018-01-27T16:44:26.560Z,145.60
2018-01-27T16:46:54.397Z,133.97
2018-01-27T16:49:22.031Z,169.83
2018-01-27T16:51:49.596Z,144.10
2018-01-27T16:54:17.223Z,179.73
2018-01-27T16:56:44.791Z,172.80
2018-01-27T16:59:12.364Z,139.63
2018-01-27T17:01:39.974Z,154.20
2018-01-27T17:04:07.630Z,167.33
2018-01-27T17:06:35.227Z,158.73
2018-01-27T17:09:02.864Z,176.63
2018-01-27T17:11:30.658Z,154.50
2018-01-27T17:13:58.194Z,179.40
2018-01-27T17:16:25.789Z,171.03
2018-01-27T17:18:53.331Z,183.50
2018-01-27T17:21:20.908Z,185.40
2018-01-27T17:23:48.511Z,162.97
2018-01-27T17:26:16.082Z,150.37
2018-01-27T17:28:43.647Z,155.63
2018-01-27T17:31:11.321Z,155.83
2018-01-27T17:33:38.870Z,157.63
2018-01-27T17:36:06.425Z,166.33
2018-01-27T17:38:34.067Z,159.50
2018-01-27T17:41:01.647Z,158.47
2018-01-27T17:43:29.211Z,173.47
2018-01-27T17:45:56.830Z,171.73
2018-01-27T17:48:24.405Z,151.30
2018-01-27T17:50:51.987Z,156.93
2018-01-27T17:53:19.614Z,130.27
2018-01-27T17:55:47.208Z,127.47
2018-01-27T17:58:14.838Z,137.03
2018-01-27T18:00:42.430Z,127.87
2018-01-27T18:03:09.994Z,119.60
2018-01-27T18:05:37.673Z,125.70
2018-01-27T18:08:05.285Z,127.37
2018-01-27T18:10:32.865Z,176.67
2018-01-27T18:13:00.427Z,187.50
2018-01-27T18:15:28.055Z,187.20
2018-01-27T18:17:55.725Z,152.53
2018-01-27T18:20:23.295Z,161.97
2018-01-27T18:22:50.915Z,148.10
2018-01-27T18:25:18.515Z,158.33
2018-01-27T18:27:46.090Z,159.33
2018-01-27T18:30:13.692Z,184.03
2018-01-27T18:32:41.284Z,138.87
2018-01-27T18:35:08.863Z,141.03
2018-01-27T18:37:36.460Z,131.13
2018-01-27T18:40:04.046Z,136.33
2018-01-27T18:42:31.684Z,160.90
2018-01-27T18:44:59.313Z,141.37
2018-01-27T18:47:26.878Z,121.40
2018-01-27T18:49:54.457Z,114.73
2018-01-27T18:52:22.059Z,133.73
2018-01-27T18:54:49.636Z,119.23
2018-01-27T18:57:17.852Z,126.93
2018-01-27T18:59:48.441Z,132.03
2018-01-27T19:02:16.152Z,129.50
2018-01-27T19:04:43.727Z,145.23
2018-01-27T19:07:11.329Z,139.07
2018-01-27T19:09:38.921Z,138.97
2018-01-27T19:12:06.485Z,129.17
2018-01-27T19:14:34.131Z,147.93
2018-01-27T19:17:01.733Z,165.30
2018-01-27T19:19:29.286Z,150.87
2018-01-27T19:21:56.935Z,183.33
2018-01-27T19:24:24.527Z,149.40
2018-01-27T19:26:52.118Z,129.97
2018-01-27T19:29:19.718Z,114.93
2018-01-27T19:31:47.288Z,129.37
2018-01-27T19:34:14.850Z,127.73
2018-01-27T19:36:42.458Z,120.13
2018-01-27T19:39:10.031Z,128.10
2018-01-27T19:41:37.606Z,145.70
2018-01-27T19:44:05.221Z,132.77
2018-01-27T19:46:32.817Z,143.10
2018-01-27T19:49:00.427Z,155.98
2018-01-27T19:51:28.116Z,144.43
2018-01-27T19:53:55.683Z,136.30
2018-01-27T19:56:23.254Z,156.13
2018-01-27T19:58:50.859Z,179.80
2018-01-27T20:01:18.422Z,151.77
2018-01-27T20:03:46.019Z,148.40
2018-01-27T20:06:13.620Z,139.30
2018-01-27T20:08:41.232Z,146.23
2018-01-27T20:11:08.799Z,142.33
2018-01-27T20:13:36.388Z,141.20
2018-01-27T20:16:03.961Z,120.07
2018-01-27T20:18:31.766Z,128.37
2018-01-27T20:20:59.473Z,124.47
2018-01-27T20:23:27.042Z,123.30
2018-01-27T20:25:54.619Z,134.47
2018-01-27T20:28:22.236Z,147.53
2018-01-27T20:30:49.812Z,143.40
2018-01-27T20:33:17.405Z,136.30
2018-01-27T20:35:45.017Z,128.53
2018-01-27T20:38:12.611Z,128.17
2018-01-27T20:40:40.186Z,142.05
2018-01-27T20:43:07.797Z,181.97
2018-01-27T20:45:35.381Z,214.23
2018-01-27T20:48:02.947Z,146.10
2018-01-27T20:50:30.579Z,150.10
2018-01-27T20:52:58.188Z,166.25
2018-01-27T20:55:25.753Z,154.70
2018-01-27T20:57:53.364Z,151.57
2018-01-27T21:00:21.004Z,152.27
2018-01-27T21:02:48.625Z,159.13
2018-01-27T21:05:16.227Z,165.05
2018-01-27T21:07:43.806Z,164.57
2018-01-27T21:10:11.389Z,156.47
2018-01-27T21:12:39.016Z,142.00
2018-01-27T21:15:06.598Z,154.10
2018-01-27T21:17:34.202Z,153.50
2018-01-27T21:20:02.052Z,164.50
2018-01-27T21:22:29.698Z,156.80
2018-01-27T21:24:57.288Z,139.23
2018-01-27T21:27:24.903Z,150.53
2018-01-27T21:29:52.492Z,160.40
2018-01-27T21:32:20.121Z,146.43
2018-01-27T21:34:47.787Z,148.33
2018-01-27T21:37:15.396Z,162.43
2018-01-27T21:39:42.974Z,146.87
2018-01-27T21:42:11.485Z,130.30
2018-01-27T21:44:39.174Z,148.70
2018-01-27T21:47:06.750Z,133.97
2018-01-27T21:49:34.386Z,146.13
2018-01-27T21:52:01.976Z,145.10
2018-01-27T21:54:29.573Z,157.53
2018-01-27T21:56:57.221Z,172.87
2018-01-27T21:59:24.788Z,161.00
2018-01-27T22:01:52.363Z,179.10
2018-01-27T22:04:19.987Z,155.93
2018-01-27T22:06:47.564Z,149.70
2018-01-27T22:09:15.161Z,154.57
2018-01-27T22:11:42.818Z,137.93
2018-01-27T22:14:10.395Z,130.07
2018-01-27T22:16:37.996Z,134.97
2018-01-27T22:19:05.657Z,153.40
2018-01-27T22:21:33.261Z,134.03
2018-01-27T22:24:00.978Z,131.33
2018-01-27T22:26:28.808Z,142.63
2018-01-27T22:28:56.453Z,148.77
2018-01-27T22:31:24.018Z,159.90
2018-01-27T22:33:51.597Z,133.37
2018-01-27T22:36:19.266Z,142.17
2018-01-27T22:38:46.852Z,146.63
2018-01-27T22:41:14.422Z,158.77
2018-01-27T22:43:42.054Z,149.83
2018-01-27T22:46:09.631Z,165.93
2018-01-27T22:48:37.221Z,192.80
2018-01-27T22:51:04.835Z,178.40
2018-01-27T22:53:32.434Z,172.27
2018-01-27T22:55:59.994Z,158.73
2018-01-27T22:58:27.611Z,198.57
2018-01-27T23:01:00.776Z,208.20
2018-01-27T23:03:28.392Z,175.47
2018-01-27T23:05:55.969Z,175.40
2018-01-27T23:08:23.564Z,158.67
2018-01-27T23:10:51.252Z,153.30
2018-01-27T23:13:18.852Z,155.67
2018-01-27T23:15:53.238Z,140.40
2018-01-27T23:18:20.874Z,132.33
2018-01-27T23:20:48.450Z,155.63
2018-01-27T23:23:16.076Z,127.33
2018-01-27T23:25:43.630Z,143.50
2018-01-27T23:28:11.229Z,130.47
2018-01-27T23:30:38.841Z,132.93
2018-01-27T23:33:06.403Z,152.68
2018-01-27T23:35:33.984Z,143.70
2018-01-27T23:38:01.589Z,127.60
2018-01-27T23:40:29.188Z,139.97
2018-01-27T23:42:56.761Z,123.43
2018-01-27T23:45:24.375Z,135.63
2018-01-27T23:47:51.939Z,133.33
2018-01-27T23:50:19.494Z,181.80
2018-01-27T23:52:47.273Z,189.90
2018-01-27T23:55:14.974Z,134.83
2018-01-27T23:57:42.583Z,118.30
